Terminal Aerodrome Forecast
Issued by NWS

Home | Current Version | Previous Version | Text Only | Print | Product List | Glossary On
Versions: 1 2 3 4 5 6 7 8 9 10 11 12 13 14 15 16 17
000
FTUS46 KMFR 272342
TAFRBG
TAF
KRBG 272342Z 2800/2824 35009KT P6SM SKC
     FM280600 VRB03KT P6SM VCSH BKN035
     FM281400 00000KT P6SM BKN030
     FM281700 00000KT P6SM SCT030
     FM282200 35006KT P6SM SKC=

USA.gov is the U.S. government's official web portal to all federal, state and local government web resources and services.